Time;durP1;ratioP1;P1;durP2;ratioP2;P2;SDS_P1;SDS_P2;PMS_P1;PMS_P2;Temp;Humidity;BMP_temperature;BMP_pressure;BME280_temperature;BME280_humidity;BME280_pressure;Samples;Min_cycle;Max_cycle;Signal;HPM_P1;HPM_P2
2024/04/11 00:00:49;;;;;;;3.17;2.30;;;;;;;6.79;57.31;100391.16;5490730;26;40153;-79
2024/04/11 00:03:16;;;;;;;2.73;2.00;;;;;;;6.57;57.56;100366.16;5490578;26;41673;-77
2024/04/11 00:05:46;;;;;;;2.53;1.60;;;;;;;6.60;57.60;100381.03;5492347;26;42588;-77
2024/04/11 00:08:12;;;;;;;3.00;1.67;;;;;;;6.55;58.02;100381.16;5490341;26;40899;-78
2024/04/11 00:10:41;;;;;;;3.80;2.03;;;;;;;6.55;57.76;100388.19;5490413;26;39159;-79
2024/04/11 00:13:11;;;;;;;2.67;2.27;;;;;;;6.58;57.72;100399.50;5490465;26;42582;-77
2024/04/11 00:15:40;;;;;;;2.97;2.00;;;;;;;6.54;57.88;100408.38;5490252;26;41581;-79
2024/04/11 00:18:07;;;;;;;1.90;1.57;;;;;;;6.49;57.98;100404.97;5491819;26;41749;-79
2024/04/11 00:20:36;;;;;;;3.27;2.07;;;;;;;6.41;58.26;100401.63;5491908;26;40992;-77
2024/04/11 00:23:02;;;;;;;2.50;1.80;;;;;;;6.19;58.37;100359.09;5490085;26;41734;-79
2024/04/11 00:25:31;;;;;;;3.97;2.00;;;;;;;6.38;58.60;100396.44;5490848;26;44991;-80
2024/04/11 00:27:58;;;;;;;2.63;1.70;;;;;;;6.36;59.95;100399.09;5494945;26;42544;-80
2024/04/11 00:30:31;;;;;;;3.00;1.97;;;;;;;6.13;59.46;100359.22;5495045;26;40132;-81
2024/04/11 00:32:59;;;;;;;3.20;1.63;;;;;;;6.09;59.40;100362.81;5493375;26;42691;-79
2024/04/11 00:35:28;;;;;;;2.00;1.63;;;;;;;6.16;59.61;100380.22;5493170;26;42853;-80
2024/04/11 00:37:55;;;;;;;3.20;1.70;;;;;;;6.11;59.93;100371.53;5494925;26;42234;-80
2024/04/11 00:40:24;;;;;;;3.27;2.07;;;;;;;6.28;59.71;100400.16;5493441;26;40145;-77
2024/04/11 00:42:51;;;;;;;3.47;1.70;;;;;;;6.20;60.06;100387.13;5493482;26;41741;-78
2024/04/11 00:45:20;;;;;;;3.30;1.70;;;;;;;6.26;59.75;100404.56;5495043;26;42714;-77
2024/04/11 00:47:50;;;;;;;3.43;1.90;;;;;;;6.21;60.36;100388.00;5493120;26;42451;-79
2024/04/11 00:50:19;;;;;;;3.03;2.00;;;;;;;6.17;60.35;100384.59;5493448;26;40499;-80
2024/04/11 00:52:48;;;;;;;3.43;1.73;;;;;;;6.07;60.40;100370.72;5462729;26;41857;-80
2024/04/11 00:55:19;;;;;;;2.70;1.70;;;;;;;6.15;60.22;100393.41;5494824;26;42856;-79
2024/04/11 00:57:45;;;;;;;2.17;1.50;;;;;;;6.00;60.42;100378.78;5462802;26;41059;-78
2024/04/11 01:00:15;;;;;;;1.90;1.43;;;;;;;6.05;60.18;100388.34;5462349;26;39074;-77
2024/04/11 01:02:42;;;;;;;2.07;1.73;;;;;;;6.06;60.75;100389.16;5493324;26;42689;-78
2024/04/11 01:05:13;;;;;;;1.67;1.53;;;;;;;5.91;60.56;100369.31;5494572;26;44022;-78
2024/04/11 01:07:40;;;;;;;3.20;1.70;;;;;;;5.88;60.50;100374.63;5494861;26;42344;-80
2024/04/11 01:10:16;;;;;;;2.63;1.87;;;;;;;5.97;60.89;100405.13;5492762;26;40993;-78
2024/04/11 01:12:43;;;;;;;4.07;1.83;;;;;;;5.73;60.91;100353.84;5494673;26;42725;-77
2024/04/11 01:15:13;;;;;;;2.80;1.40;;;;;;;5.93;60.94;100391.19;5494626;26;43995;-79
2024/04/11 01:17:39;;;;;;;1.47;1.30;;;;;;;5.92;62.76;100384.22;5494421;26;42006;-80
2024/04/11 01:20:11;;;;;;;3.93;2.20;;;;;;;5.82;64.02;100369.44;5494572;26;39995;-78
2024/04/11 01:22:41;;;;;;;2.63;2.03;;;;;;;5.91;63.27;100382.47;5494702;26;41720;-80
2024/04/11 01:25:12;;;;;;;2.40;2.00;;;;;;;5.89;63.30;100381.63;5494608;26;42295;-80
2024/04/11 01:27:39;;;;;;;3.37;2.07;;;;;;;5.89;62.60;100384.25;5492820;26;42077;-79
2024/04/11 01:30:09;;;;;;;1.77;1.67;;;;;;;5.88;62.92;100384.25;5494310;26;41201;-80
2024/04/11 01:32:35;;;;;;;3.17;1.80;;;;;;;5.73;62.66;100372.25;5462431;26;41679;-80
2024/04/11 01:35:04;;;;;;;1.93;1.50;;;;;;;5.80;62.50;100386.16;5493007;26;44081;-79
2024/04/11 01:37:31;;;;;;;3.07;1.77;;;;;;;5.75;62.42;100386.25;5493758;26;42228;-78
2024/04/11 01:40:07;;;;;;;1.90;1.30;;;;;;;5.70;61.89;100380.19;5492851;26;38490;-77
2024/04/11 01:42:34;;;;;;;1.90;1.57;;;;;;;5.60;61.90;100378.63;5498401;26;42700;-77
2024/04/11 01:45:03;;;;;;;2.80;1.47;;;;;;;5.60;61.88;100387.38;5499015;26;44187;-78
2024/04/11 01:47:30;;;;;;;2.07;1.60;;;;;;;5.58;62.52;100380.41;5496712;26;41128;-79
2024/04/11 01:49:59;;;;;;;2.40;1.77;;;;;;;5.51;62.50;100379.66;5494237;26;41166;-78
2024/04/11 01:52:25;;;;;;;2.33;1.60;;;;;;;5.52;62.05;100396.31;5495261;26;42836;-79
2024/04/11 01:54:55;;;;;;;1.10;1.10;;;;;;;5.40;62.11;100377.22;5494748;26;44096;-78
2024/04/11 01:57:25;;;;;;;1.20;1.10;;;;;;;5.27;62.32;100354.69;5493088;26;43468;-81
2024/04/11 01:59:55;;;;;;;2.17;1.63;;;;;;;5.36;62.49;100386.03;5494641;26;41228;-78
2024/04/11 02:02:22;;;;;;;2.33;1.50;;;;;;;5.39;62.31;100391.25;5494605;26;41513;-77
2024/04/11 02:04:51;;;;;;;1.27;1.17;;;;;;;5.23;62.29;100366.13;5494542;26;44046;-80
2024/04/11 02:07:17;;;;;;;2.20;1.57;;;;;;;5.22;62.44;100366.16;5494195;26;42339;-79
2024/04/11 02:09:46;;;;;;;2.33;1.37;;;;;;;5.22;62.34;100388.03;5494522;26;39913;-77
2024/04/11 02:12:13;;;;;;;2.00;1.43;;;;;;;5.26;62.24;100394.97;5494082;26;41784;-78
2024/04/11 02:14:46;;;;;;;3.40;1.60;;;;;;;5.16;62.47;100389.91;5493526;26;43936;-77
2024/04/11 02:17:12;;;;;;;4.43;1.80;;;;;;;5.19;62.66;100388.09;5494167;26;41916;-77
2024/04/11 02:19:45;;;;;;;4.00;1.97;;;;;;;5.05;62.57;100371.69;5491782;26;40100;-79
2024/04/11 02:22:11;;;;;;;2.07;1.50;;;;;;;5.12;62.63;100389.06;5494271;26;41692;-79
2024/04/11 02:24:40;;;;;;;3.07;1.60;;;;;;;5.04;62.78;100381.34;5491874;26;41496;-80
2024/04/11 02:27:08;;;;;;;3.20;1.73;;;;;;;4.93;62.71;100374.50;5493890;26;42056;-78
2024/04/11 02:29:37;;;;;;;3.00;1.60;;;;;;;4.81;62.81;100357.19;5493516;26;40948;-78
2024/04/11 02:32:06;;;;;;;2.90;1.43;;;;;;;5.03;62.94;100397.09;5493784;26;41711;-80
2024/04/11 02:34:36;;;;;;;2.37;1.57;;;;;;;5.01;62.70;100393.63;5493437;26;44555;-80
2024/04/11 02:37:04;;;;;;;2.27;1.50;;;;;;;4.89;63.29;100373.69;5493701;26;41952;-77
2024/04/11 02:39:33;;;;;;;3.07;1.50;;;;;;;4.99;62.94;100395.41;5493507;26;41231;-77
2024/04/11 02:42:00;;;;;;;2.73;1.60;;;;;;;4.91;62.84;100382.41;5492194;26;41715;-78
2024/04/11 02:44:29;;;;;;;2.13;1.70;;;;;;;4.86;63.05;100383.34;5491093;26;42180;-77
2024/04/11 02:46:56;;;;;;;2.80;1.87;;;;;;;4.85;63.40;100384.25;5493774;26;42126;-80
2024/04/11 02:49:28;;;;;;;2.03;1.87;;;;;;;4.92;64.75;100383.28;5459557;26;38615;-80
2024/04/11 02:51:55;;;;;;;3.70;1.90;;;;;;;4.93;64.58;100395.53;5491856;26;39690;-78
2024/04/11 02:54:23;;;;;;;2.13;1.60;;;;;;;4.92;64.34;100393.78;5460822;26;44261;-76
2024/04/11 02:56:50;;;;;;;2.73;1.60;;;;;;;4.86;64.40;100385.97;5491881;26;42421;-79
2024/04/11 02:59:19;;;;;;;2.20;1.70;;;;;;;4.90;64.09;100398.19;5491868;26;40037;-78
2024/04/11 03:01:46;;;;;;;3.03;2.00;;;;;;;4.65;64.24;100369.66;5493458;26;41442;-79
2024/04/11 03:04:15;;;;;;;1.93;1.37;;;;;;;4.78;64.31;100391.34;5492148;26;44221;-79
2024/04/11 03:06:44;;;;;;;2.10;1.50;;;;;;;4.73;65.13;100377.41;5491920;26;43245;-77
2024/04/11 03:09:13;;;;;;;1.93;1.73;;;;;;;4.81;64.42;100401.81;5491924;26;39424;-76
2024/04/11 03:11:40;;;;;;;1.97;1.53;;;;;;;4.63;64.62;100379.31;5493308;26;42905;-78
2024/04/11 03:14:09;;;;;;;3.00;1.50;;;;;;;4.53;64.55;100369.84;5493183;26;43799;-78
2024/04/11 03:16:36;;;;;;;2.27;1.90;;;;;;;4.65;65.02;100385.41;5493409;26;42084;-80
2024/04/11 03:19:06;;;;;;;4.13;1.80;;;;;;;4.74;66.26;100389.66;5491678;26;41300;-78
2024/04/11 03:21:32;;;;;;;1.90;1.50;;;;;;;4.75;65.76;100395.78;5493614;26;41582;-78
2024/04/11 03:24:04;;;;;;;1.87;1.27;;;;;;;4.72;65.89;100401.06;5493054;26;44018;-78
2024/04/11 03:26:30;;;;;;;4.67;2.27;;;;;;;4.52;65.45;100368.09;5493207;26;43017;-79
2024/04/11 03:29:00;;;;;;;2.23;1.63;;;;;;;4.70;65.14;100399.31;5491271;26;40097;-79
2024/04/11 03:31:26;;;;;;;2.37;1.60;;;;;;;4.69;65.11;100408.09;5492912;26;42879;-77
2024/04/11 03:33:57;;;;;;;2.47;1.63;;;;;;;4.54;65.13;100387.31;5492821;26;42881;-77
2024/04/11 03:36:23;;;;;;;2.63;1.40;;;;;;;4.48;65.00;100379.53;5491528;26;43699;-78
2024/04/11 03:38:54;;;;;;;2.40;1.40;;;;;;;4.42;65.39;100381.38;5492973;26;40104;-78
2024/04/11 03:41:23;;;;;;;2.10;1.60;;;;;;;4.57;64.97;100416.16;5493196;26;41547;-78
2024/04/11 03:43:54;;;;;;;1.90;1.63;;;;;;;4.53;65.24;100427.56;5492446;26;44085;-79
2024/04/11 03:46:23;;;;;;;3.83;2.03;;;;;;;4.48;64.83;100421.50;5492908;26;43364;-78
2024/04/11 03:48:55;;;;;;;2.77;1.50;;;;;;;4.45;65.23;100434.63;5490729;26;41253;-76
2024/04/11 03:51:23;;;;;;;2.30;1.90;;;;;;;4.40;65.32;100436.47;5491359;26;42570;-80
2024/04/11 03:53:53;;;;;;;3.43;1.77;;;;;;;4.39;65.10;100445.22;5492429;26;42969;-77
2024/04/11 03:56:23;;;;;;;1.60;1.50;;;;;;;4.30;65.59;100432.22;5492633;26;42109;-77
2024/04/11 03:58:56;;;;;;;3.43;1.70;;;;;;;4.35;65.33;100446.13;5492402;26;39966;-78
2024/04/11 04:01:23;;;;;;;1.93;1.70;;;;;;;4.28;65.42;100436.63;5494327;26;41722;-77
2024/04/11 04:03:54;;;;;;;1.93;1.63;;;;;;;4.12;65.71;100403.59;5495025;26;43999;-79
2024/04/11 04:06:21;;;;;;;2.47;1.70;;;;;;;4.32;66.00;100444.44;5495744;26;42431;-77
2024/04/11 04:08:52;;;;;;;2.73;1.80;;;;;;;4.19;66.00;100421.00;5495718;26;39916;-85
2024/04/11 04:11:20;;;;;;;3.30;1.77;;;;;;;4.32;68.39;100438.31;5494604;26;41454;-86
2024/04/11 04:13:54;;;;;;;3.77;1.90;;;;;;;4.27;68.25;100427.00;5494021;26;42801;-87
2024/04/11 04:16:21;;;;;;;2.83;2.10;;;;;;;4.27;68.54;100424.38;5495821;26;42297;-82
2024/04/11 04:18:54;;;;;;;2.97;1.97;;;;;;;4.30;68.56;100424.34;5495732;26;39980;-84
2024/04/11 04:21:21;;;;;;;3.27;2.10;;;;;;;4.24;68.65;100420.03;5494099;26;41558;-81
2024/04/11 04:23:54;;;;;;;5.60;2.50;;;;;;;4.27;68.97;100425.25;5493993;26;42978;-84
2024/04/11 04:26:25;;;;;;;3.10;1.70;;;;;;;4.43;69.47;100441.69;5496025;26;43252;-85
2024/04/11 04:28:57;;;;;;;3.40;2.10;;;;;;;4.34;69.49;100429.53;5493992;26;40182;-85
2024/04/11 04:31:25;;;;;;;3.73;2.37;;;;;;;4.47;70.94;100438.13;5493777;26;42237;-80
2024/04/11 04:33:57;;;;;;;2.73;2.37;;;;;;;4.45;70.71;100439.03;5494736;26;44017;-85
2024/04/11 04:36:28;;;;;;;4.00;2.57;;;;;;;4.51;71.17;100442.44;5493144;26;41235;-80
2024/04/11 04:38:57;;;;;;;2.43;2.07;;;;;;;4.49;70.80;100444.22;5494844;26;41290;-83
2024/04/11 04:41:29;;;;;;;3.30;2.33;;;;;;;4.52;70.54;100456.44;5495052;26;42114;-80
2024/04/11 04:44:00;;;;;;;2.93;2.20;;;;;;;4.42;69.83;100436.44;5494255;26;42613;-83
2024/04/11 04:46:32;;;;;;;4.33;2.23;;;;;;;4.45;69.57;100445.13;5494686;26;42305;-85
2024/04/11 04:49:00;;;;;;;3.13;2.10;;;;;;;4.41;69.50;100438.22;5494869;26;40135;-80
2024/04/11 04:51:31;;;;;;;3.23;2.20;;;;;;;4.39;69.05;100445.22;5493581;26;41698;-84
2024/04/11 04:53:59;;;;;;;2.50;1.60;;;;;;;4.47;68.97;100460.84;5494533;26;43145;-82
2024/04/11 04:56:32;;;;;;;1.70;1.60;;;;;;;4.46;68.74;100467.84;5494674;26;43390;-80
2024/04/11 04:59:02;;;;;;;2.33;1.70;;;;;;;4.40;68.77;100460.06;5494888;26;39877;-82
2024/04/11 05:01:33;;;;;;;2.03;1.70;;;;;;;4.30;68.46;100451.44;5492777;26;42133;-86
2024/04/11 05:03:59;;;;;;;3.60;1.83;;;;;;;4.34;68.18;100460.13;5492868;26;42429;-84
2024/04/11 05:06:29;;;;;;;2.23;1.73;;;;;;;4.51;68.47;100481.81;5494760;26;42538;-84
2024/04/11 05:08:56;;;;;;;1.57;1.47;;;;;;;4.46;67.71;100473.09;5494907;26;40259;-82
2024/04/11 05:11:31;;;;;;;1.97;1.63;;;;;;;4.60;68.03;100486.06;5492217;26;41672;-83
2024/04/11 05:13:58;;;;;;;2.60;2.10;;;;;;;4.55;67.81;100467.75;5462380;26;44596;-84
2024/04/11 05:16:29;;;;;;;2.43;1.93;;;;;;;4.68;67.71;100479.84;5492588;26;43852;-85
2024/04/11 05:18:56;;;;;;;2.67;2.10;;;;;;;4.79;67.61;100489.34;5492559;26;41061;-81
2024/04/11 05:21:26;;;;;;;3.53;2.17;;;;;;;4.74;67.49;100473.63;5492393;26;40444;-85
2024/04/11 05:23:54;;;;;;;3.73;2.40;;;;;;;4.74;67.30;100463.13;5492604;26;41608;-82
2024/04/11 05:26:25;;;;;;;3.30;2.37;;;;;;;5.01;67.44;100498.66;5462633;26;41043;-84
2024/04/11 05:28:52;;;;;;;2.77;2.07;;;;;;;5.15;67.55;100491.47;5492783;26;40037;-84
2024/04/11 05:31:25;;;;;;;3.00;2.10;;;;;;;5.29;67.14;100500.00;5492244;26;40533;-84
2024/04/11 05:34:06;;;;;;;2.47;2.00;;;;;;;5.36;66.92;100485.88;5462517;26;41600;-88
2024/04/11 05:36:35;;;;;;;3.27;2.37;;;;;;;5.63;66.45;100495.09;5494415;26;43096;-83
2024/04/11 05:39:03;;;;;;;2.00;1.70;;;;;;;5.76;66.48;100483.47;5493894;26;40030;-87
2024/04/11 05:41:34;;;;;;;3.27;1.80;;;;;;;5.97;66.43;100498.03;5494991;26;41757;-80
2024/04/11 05:44:01;;;;;;;3.80;2.50;;;;;;;6.03;67.93;100478.66;5495301;26;43738;-85
2024/04/11 05:46:30;;;;;;;3.90;2.43;;;;;;;6.31;67.93;100497.41;5493113;26;42446;-86
2024/04/11 05:48:59;;;;;;;3.20;2.20;;;;;;;6.54;67.67;100482.06;5494332;26;40371;-84
2024/04/11 05:51:29;;;;;;;2.93;2.10;;;;;;;6.55;67.03;100457.50;5492411;26;40423;-89
2024/04/11 05:53:55;;;;;;;3.00;2.40;;;;;;;6.69;67.23;100471.19;5494158;26;42991;-86
2024/04/11 05:56:24;;;;;;;2.90;2.03;;;;;;;6.71;67.05;100463.28;5494196;26;42094;-85
2024/04/11 05:58:51;;;;;;;2.17;1.97;;;;;;;6.91;67.13;100497.09;5493923;26;41157;-84
2024/04/11 06:01:20;;;;;;;3.50;2.03;;;;;;;6.82;67.13;100477.94;5461848;26;40500;-83
2024/04/11 06:03:49;;;;;;;2.13;1.93;;;;;;;6.95;67.40;100480.31;5493972;26;42689;-90
2024/04/11 06:06:21;;;;;;;3.50;2.37;;;;;;;6.88;66.91;100424.28;5494175;26;42399;-90
2024/04/11 06:08:50;;;;;;;2.83;2.37;;;;;;;7.60;65.67;100476.16;5492443;26;40399;-87
2024/04/11 06:11:21;;;;;;;2.70;2.07;;;;;;;7.92;64.77;100501.72;5495220;26;41617;-84
2024/04/11 06:13:47;;;;;;;4.23;2.50;;;;;;;8.19;64.30;100495.72;5462200;26;41877;-85
2024/04/11 06:16:17;;;;;;;3.13;2.37;;;;;;;8.55;64.09;100493.03;5496147;26;42459;-80
2024/04/11 06:18:44;;;;;;;2.50;2.10;;;;;;;8.90;63.59;100516.66;5504305;26;40088;-79
2024/04/11 06:21:18;;;;;;;4.17;2.17;;;;;;;9.37;62.79;100527.59;5502750;26;42637;-79
2024/04/11 06:23:47;;;;;;;3.57;2.60;;;;;;;9.76;61.50;100516.66;5496416;26;43815;-89
2024/04/11 06:26:17;;;;;;;3.97;2.67;;;;;;;9.95;61.42;100541.59;5494406;26;42408;-85
2024/04/11 06:28:45;;;;;;;2.53;2.27;;;;;;;9.66;61.40;100527.53;5493103;26;39071;-87
2024/04/11 06:31:14;;;;;;;2.97;2.00;;;;;;;9.46;62.00;100516.72;5494706;26;43042;-88
2024/04/11 06:33:41;;;;;;;3.77;2.63;;;;;;;9.40;62.54;100521.31;5462037;26;43153;-83
2024/04/11 06:36:10;;;;;;;5.17;2.30;;;;;;;9.22;62.92;100488.41;5462762;26;40551;-83
2024/04/11 06:38:37;;;;;;;4.00;2.30;;;;;;;9.41;62.71;100513.34;5494532;26;39924;-82
2024/04/11 06:41:18;;;;;;;5.47;2.80;;;;;;;9.51;62.69;100504.25;5492547;26;40580;-83
2024/04/11 06:43:46;;;;;;;4.73;2.53;;;;;;;9.69;62.76;100516.00;5491970;26;44407;-83
2024/04/11 06:46:15;;;;;;;3.83;2.40;;;;;;;9.87;63.85;100522.47;5492064;26;42703;-86
2024/04/11 06:48:43;;;;;;;3.80;2.70;;;;;;;10.00;63.87;100521.16;5491608;26;40325;-82
2024/04/11 06:51:14;;;;;;;3.57;2.73;;;;;;;10.13;63.16;100519.81;5494021;26;42955;-86
2024/04/11 06:53:43;;;;;;;3.20;2.90;;;;;;;10.37;61.67;100534.91;5491936;26;43896;-82
2024/04/11 06:56:17;;;;;;;5.37;3.30;;;;;;;10.48;61.91;100515.97;5493337;26;42167;-85
2024/04/11 06:58:45;;;;;;;7.33;2.87;;;;;;;10.73;62.18;100531.84;5491784;26;40221;-87
2024/04/11 07:01:15;;;;;;;3.50;2.70;;;;;;;10.80;61.44;100514.78;5493897;26;41703;-80
2024/04/11 07:03:43;;;;;;;4.40;3.20;;;;;;;11.10;62.45;100521.59;5461771;26;42922;-80
2024/04/11 07:06:21;;;;;;;3.13;2.77;;;;;;;11.56;60.78;100541.03;5493996;26;42249;-86
2024/04/11 07:08:48;;;;;;;5.60;3.07;;;;;;;12.21;58.93;100545.47;5500034;26;38423;-79
2024/04/11 07:11:27;;;;;;;6.50;3.13;;;;;;;12.79;57.27;100542.94;5503472;26;41785;-80
2024/04/11 07:13:55;;;;;;;4.20;3.00;;;;;;;13.20;57.36;100559.72;5493710;26;42693;-82
2024/04/11 07:16:26;;;;;;;4.47;3.53;;;;;;;13.16;56.99;100548.34;5493555;26;43264;-86
2024/04/11 07:18:54;;;;;;;4.50;3.30;;;;;;;13.06;57.96;100525.72;5493432;26;40301;-83
2024/04/11 07:21:25;;;;;;;5.53;3.90;;;;;;;13.24;56.81;100535.53;5491870;26;40739;-87
2024/04/11 07:23:54;;;;;;;5.23;3.67;;;;;;;13.62;57.53;100548.84;5491783;26;42842;-82
2024/04/11 07:26:29;;;;;;;6.20;3.50;;;;;;;13.93;56.79;100532.25;5491861;26;42270;-83
2024/04/11 07:28:56;;;;;;;4.27;3.17;;;;;;;14.32;56.69;100532.03;5491439;26;42648;-86
2024/04/11 07:31:25;;;;;;;4.73;2.93;;;;;;;14.74;55.10;100560.97;5492947;26;41386;-85
2024/04/11 07:33:52;;;;;;;4.70;3.40;;;;;;;14.95;54.43;100541.19;5491132;26;41837;-83
2024/04/11 07:36:22;;;;;;;3.20;2.50;;;;;;;15.23;53.97;100537.84;5491993;26;43056;-81
2024/04/11 07:38:49;;;;;;;7.73;2.93;;;;;;;15.64;53.37;100553.41;5493106;26;39412;-80
2024/04/11 07:41:23;;;;;;;4.80;2.30;;;;;;;16.31;50.75;100571.78;5493273;26;41596;-85
2024/04/11 07:43:55;;;;;;;4.47;2.63;;;;;;;16.93;48.48;100580.56;5492847;26;42758;-86
2024/04/11 07:46:28;;;;;;;5.77;2.43;;;;;;;17.19;48.38;100579.78;5492389;26;20251;-83
2024/04/11 07:48:56;;;;;;;3.53;2.60;;;;;;;17.31;48.13;100566.63;5491435;26;40185;-81
2024/04/11 07:51:26;;;;;;;5.27;2.70;;;;;;;17.85;44.70;100605.09;5491074;26;41673;-81
2024/04/11 07:53:52;;;;;;;5.13;2.43;;;;;;;18.03;45.75;100579.78;5490931;26;43396;-83
2024/04/11 07:56:25;;;;;;;5.37;2.40;;;;;;;18.14;45.35;100587.13;5492853;26;43319;-84
2024/04/11 07:58:55;;;;;;;3.20;1.87;;;;;;;18.20;44.63;100597.44;5492687;26;40061;-86
2024/04/11 08:01:30;;;;;;;3.70;2.37;;;;;;;18.35;45.15;100607.16;5461013;26;40680;-83
2024/04/11 08:03:57;;;;;;;4.27;2.17;;;;;;;18.65;43.99;100620.38;5492341;25;42183;-86
2024/04/11 08:06:26;;;;;;;6.57;2.20;;;;;;;19.09;43.48;100601.19;5492872;26;42465;-85
2024/04/11 08:08:53;;;;;;;3.23;2.10;;;;;;;20.03;41.65;100621.25;5492337;26;40940;-83
2024/04/11 08:11:22;;;;;;;6.43;2.70;;;;;;;21.03;40.60;100631.63;5490745;26;41630;-82
2024/04/11 08:13:48;;;;;;;6.20;2.50;;;;;;;22.18;39.56;100636.81;5492164;26;42883;-84
2024/04/11 08:16:20;;;;;;;7.27;2.13;;;;;;;22.85;38.30;100613.16;5490427;26;41663;-84
2024/04/11 08:18:47;;;;;;;6.47;2.80;;;;;;;23.53;37.29;100637.88;5490411;26;39963;-86
2024/04/11 08:21:16;;;;;;;4.33;2.60;;;;;;;24.69;34.37;100666.16;5460271;26;40420;-81
2024/04/11 08:23:43;;;;;;;4.33;2.53;;;;;;;25.96;33.11;100663.94;5490112;26;41314;-84
2024/04/11 08:26:12;;;;;;;3.42;2.55;;;;;;;27.05;32.77;100678.34;5490677;26;42939;-84
2024/04/11 08:28:41;;;;;;;3.38;2.10;;;;;;;27.11;30.55;100683.16;5491633;26;40362;-85
2024/04/11 08:31:11;;;;;;;4.65;2.63;;;;;;;26.87;31.39;100680.19;5490222;26;42889;-84
2024/04/11 08:33:42;;;;;;;3.95;2.08;;;;;;;27.04;31.46;100687.53;5489767;26;41544;-80
2024/04/11 08:36:12;;;;;;;2.42;2.20;;;;;;;27.72;30.74;100687.69;5492088;26;42182;-82
2024/04/11 08:38:40;;;;;;;6.68;2.20;;;;;;;28.62;29.82;100697.94;5490912;26;41244;-87
2024/04/11 08:41:11;;;;;;;5.22;2.47;;;;;;;29.39;28.44;100691.22;5490673;26;41883;-83
2024/04/11 08:43:45;;;;;;;4.38;2.40;;;;;;;29.31;28.10;100699.38;5492074;26;42717;-87
2024/04/11 08:46:14;;;;;;;5.97;2.25;;;;;;;29.15;28.67;100699.41;5490636;26;43045;-83
2024/04/11 08:48:43;;;;;;;4.55;2.08;;;;;;;29.96;26.81;100732.09;5494915;26;39828;-86
2024/04/11 08:51:19;;;;;;;3.95;2.17;;;;;;;31.36;25.60;100738.31;5494802;26;42794;-83
2024/04/11 08:53:47;;;;;;;3.40;1.98;;;;;;;32.95;24.51;100741.44;5493621;26;42916;-84
2024/04/11 08:56:17;;;;;;;3.95;1.70;;;;;;;34.83;23.04;100753.38;5463453;26;43819;-90
2024/04/11 08:58:44;;;;;;;4.30;1.77;;;;;;;36.52;21.75;100741.63;5495252;26;39947;-83
2024/04/11 09:01:17;;;;;;;3.80;1.50;;;;;;;38.01;20.41;100761.22;5493797;26;41958;-85
2024/04/11 09:03:53;;;;;;;2.90;1.67;;;;;;;39.36;18.73;100753.47;5495288;26;43898;-86
2024/04/11 09:06:28;;;;;;;3.22;1.63;;;;;;;40.08;17.79;100764.41;5493860;26;41917;-86
2024/04/11 09:08:57;;;;;;;2.38;1.48;;;;;;;39.98;17.13;100762.25;5493360;26;39030;-84
2024/04/11 09:11:27;;;;;;;3.38;1.40;;;;;;;39.47;17.18;100755.47;5495080;26;41490;-83
2024/04/11 09:13:58;;;;;;;3.05;1.23;;;;;;;39.46;17.23;100764.00;5493296;26;41717;-82
2024/04/11 09:16:29;;;;;;;1.60;1.40;;;;;;;38.90;16.18;100764.41;5494892;26;41920;-83
2024/04/11 09:19:07;;;;;;;2.97;1.20;;;;;;;38.26;18.25;100757.56;5462936;26;39147;-81
2024/04/11 09:21:43;;;;;;;2.35;1.25;;;;;;;37.60;19.07;100725.84;5493588;26;41751;-84
2024/04/11 09:24:16;;;;;;;3.28;1.42;;;;;;;36.96;19.16;100735.28;5493458;26;42791;-86
2024/04/11 09:26:46;;;;;;;4.38;1.50;;;;;;;35.85;19.10;100714.47;5493388;26;42391;-86
2024/04/11 09:29:13;;;;;;;2.88;1.30;;;;;;;35.40;19.92;100711.50;5493316;26;42372;-84
2024/04/11 09:31:43;;;;;;;2.15;1.20;;;;;;;35.89;19.31;100748.81;5495342;26;43001;-86
2024/04/11 09:34:20;;;;;;;2.70;1.35;;;;;;;36.34;19.68;100747.03;5493676;26;42482;-84
2024/04/11 09:36:52;;;;;;;1.70;1.23;;;;;;;36.57;18.75;100749.28;5495284;26;43045;-85
2024/04/11 09:39:41;;;;;;;3.05;1.60;;;;;;;36.91;18.58;100759.09;5493663;26;39754;-84
2024/04/11 09:42:12;;;;;;;2.03;1.27;;;;;;;36.96;18.36;100760.13;5493276;26;41958;-84
2024/04/11 09:44:46;;;;;;;2.40;1.30;;;;;;;36.19;19.03;100754.69;5494986;26;43239;-85
2024/04/11 09:47:18;;;;;;;1.75;1.63;;;;;;;35.10;19.39;100748.78;5493147;26;42268;-83
2024/04/11 09:49:53;;;;;;;1.95;1.50;;;;;;;34.19;20.69;100745.44;5462921;26;40085;-85
2024/04/11 09:52:27;;;;;;;2.55;1.65;;;;;;;33.73;20.45;100748.72;5494776;26;41706;-87
2024/04/11 09:55:03;;;;;;;1.73;1.10;;;;;;;32.88;20.32;100739.69;5462178;26;43268;-84
2024/04/11 09:57:36;;;;;;;2.47;1.65;;;;;;;31.89;22.28;100722.75;5462587;26;42702;-84
2024/04/11 10:00:18;;;;;;;2.20;1.50;;;;;;;31.46;22.19;100718.88;5493036;26;38467;-87
2024/04/11 10:02:47;;;;;;;2.63;1.50;;;;;;;30.74;22.61;100725.78;5494105;26;41933;-85
2024/04/11 10:05:17;;;;;;;3.92;1.70;;;;;;;30.57;22.62;100714.06;5496727;26;44164;-82
2024/04/11 10:07:57;;;;;;;2.28;1.20;;;;;;;30.13;22.18;100733.75;5505773;26;42244;-81
2024/04/11 10:10:27;;;;;;;2.30;1.57;;;;;;;29.62;23.00;100724.97;5466815;26;38845;-84
2024/04/11 10:13:01;;;;;;;1.43;1.30;;;;;;;30.08;22.54;100721.63;5493344;26;40517;-86
2024/04/11 10:15:29;;;;;;;3.88;1.65;;;;;;;30.92;22.22;100734.53;5494907;26;43727;-89
2024/04/11 10:18:08;;;;;;;1.83;1.13;;;;;;;30.49;23.22;100714.09;5492857;26;42070;-83
2024/04/11 10:20:43;;;;;;;3.30;1.53;;;;;;;29.71;23.14;100722.22;5493172;26;38793;-86
2024/04/11 10:23:15;;;;;;;2.77;1.40;;;;;;;28.89;24.61;100694.97;5493205;26;41658;-83
2024/04/11 10:25:42;;;;;;;1.40;1.20;;;;;;;28.82;23.35;100699.38;5494666;26;43034;-82
2024/04/11 10:28:18;;;;;;;1.53;1.30;;;;;;;29.47;23.29;100693.94;5494794;26;42060;-90
2024/04/11 10:30:50;;;;;;;1.92;1.27;;;;;;;30.42;23.47;100707.63;5492942;26;40225;-84
2024/04/11 10:33:29;;;;;;;2.45;1.35;;;;;;;31.63;22.90;100709.47;5492719;26;41817;-86
2024/04/11 10:36:06;;;;;;;2.75;1.08;;;;;;;32.59;22.26;100686.56;5494351;26;43818;-80
2024/04/11 10:38:36;;;;;;;2.88;1.35;;;;;;;33.02;22.15;100686.59;5494095;26;42140;-85
2024/04/11 10:41:02;;;;;;;3.38;1.33;;;;;;;33.24;20.88;100703.94;5462119;26;38836;-84
2024/04/11 10:43:32;;;;;;;2.55;1.63;;;;;;;34.16;19.62;100726.59;5492811;26;42878;-83
2024/04/11 10:45:58;;;;;;;2.45;1.20;;;;;;;35.19;20.10;100696.03;5495518;26;43887;-83
2024/04/11 10:48:31;;;;;;;2.90;1.52;;;;;;;35.76;19.12;100711.06;5493220;26;42374;-84
2024/04/11 10:51:00;;;;;;;1.60;0.95;;;;;;;35.15;18.37;100724.19;5462773;26;38635;-84
2024/04/11 10:53:33;;;;;;;2.67;1.50;;;;;;;34.51;19.35;100700.72;5493238;26;42910;-80
2024/04/11 10:56:20;;;;;;;2.33;1.05;;;;;;;34.42;19.65;100703.88;5494422;26;43039;-83
2024/04/11 10:58:50;;;;;;;4.03;1.35;;;;;;;34.71;18.54;100710.97;5494726;26;42671;-86
2024/04/11 11:01:17;;;;;;;2.67;0.82;;;;;;;34.92;19.17;100692.41;5494581;26;40051;-84
2024/04/11 11:03:50;;;;;;;1.88;0.90;;;;;;;34.65;18.94;100695.25;5492477;26;40370;-84
2024/04/11 11:06:24;;;;;;;1.10;0.85;;;;;;;34.49;18.98;100680.84;5492900;26;43652;-88
2024/04/11 11:08:59;;;;;;;2.45;0.90;;;;;;;34.63;18.47;100686.34;5492318;26;41090;-86
2024/04/11 11:11:26;;;;;;;1.73;1.00;;;;;;;35.03;19.14;100687.31;5491221;26;40970;-85
2024/04/11 11:14:00;;;;;;;1.23;0.73;;;;;;;35.65;18.50;100662.06;5493722;26;42886;-88
2024/04/11 11:16:31;;;;;;;1.63;0.95;;;;;;;36.39;18.26;100682.88;5492143;26;42945;-85
2024/04/11 11:19:01;;;;;;;1.80;1.00;;;;;;;36.77;18.48;100680.16;5492196;26;42025;-86
2024/04/11 11:21:32;;;;;;;2.10;1.05;;;;;;;37.30;18.00;100692.53;5494005;26;40420;-85
2024/04/11 11:24:06;;;;;;;3.38;1.08;;;;;;;37.75;17.15;100695.94;5461586;26;40119;-84
2024/04/11 11:26:36;;;;;;;2.95;1.35;;;;;;;38.30;15.48;100697.88;5494358;26;43729;-85
2024/04/11 11:29:19;;;;;;;2.53;0.82;;;;;;;38.01;16.22;100703.09;5491871;26;42350;-82
2024/04/11 11:31:50;;;;;;;2.50;0.90;;;;;;;37.53;17.38;100664.22;5493871;26;41343;-86
2024/04/11 11:34:27;;;;;;;1.55;0.98;;;;;;;37.05;17.25;100655.72;5461758;26;42309;-88
2024/04/11 11:36:59;;;;;;;2.95;1.00;;;;;;;37.81;16.31;100688.66;5492324;26;43163;-83
2024/04/11 11:39:33;;;;;;;1.13;0.70;;;;;;;39.04;15.70;100671.72;5493709;26;42268;-84
2024/04/11 11:42:08;;;;;;;2.40;0.90;;;;;;;39.35;15.37;100671.38;5462029;26;42392;-84